Time;durP1;ratioP1;P1;durP2;ratioP2;P2;SDS_P1;SDS_P2;PMS_P1;PMS_P2;Temp;Humidity;BMP_temperature;BMP_pressure;BME280_temperature;BME280_humidity;BME280_pressure;Samples;Min_cycle;Max_cycle;Signal;HPM_P1;HPM_P2
2022/07/08 00:00:40;;;;;;;3.13;1.17;;;20.40;60.70;;;;;;5064648;28;20027;-58
2022/07/08 00:03:05;;;;;;;2.55;1.02;;;20.50;60.50;;;;;;5055737;28;20128;-59
2022/07/08 00:05:31;;;;;;;2.70;1.13;;;20.40;60.50;;;;;;5067484;28;20475;-59
2022/07/08 00:07:56;;;;;;;3.72;1.50;;;20.50;60.60;;;;;;5078836;28;20025;-58
2022/07/08 00:10:22;;;;;;;3.03;1.00;;;20.50;60.50;;;;;;5046101;28;20028;-56
2022/07/08 00:12:48;;;;;;;3.50;1.33;;;20.50;60.40;;;;;;5069267;28;20024;-59
2022/07/08 00:15:13;;;;;;;3.38;1.33;;;20.40;60.50;;;;;;5084573;28;20085;-58
2022/07/08 00:17:39;;;;;;;5.57;1.45;;;20.50;60.60;;;;;;5064508;28;20111;-60
2022/07/08 00:20:06;;;;;;;6.47;1.80;;;20.40;60.40;;;;;;5063909;28;20021;-56
2022/07/08 00:22:32;;;;;;;3.65;1.58;;;20.40;59.40;;;;;;5065584;28;20064;-58
2022/07/08 00:24:57;;;;;;;4.32;1.50;;;20.30;60.60;;;;;;5084568;28;20497;-59
2022/07/08 00:27:23;;;;;;;3.72;1.48;;;20.40;60.90;;;;;;5084716;28;20032;-60
2022/07/08 00:29:48;;;;;;;6.32;1.30;;;20.40;60.70;;;;;;5046608;28;20074;-59
2022/07/08 00:32:14;;;;;;;5.25;1.67;;;20.40;60.40;;;;;;5046395;28;20378;-60
2022/07/08 00:34:39;;;;;;;3.60;1.20;;;20.40;60.30;;;;;;5081436;28;20028;-60
2022/07/08 00:37:06;;;;;;;4.60;1.38;;;20.30;60.90;;;;;;5084398;28;20055;-58
2022/07/08 00:39:31;;;;;;;2.35;1.30;;;20.30;60.90;;;;;;5051016;28;20033;-60
2022/07/08 00:41:57;;;;;;;4.07;1.48;;;20.40;60.60;;;;;;5063969;28;20067;-57
2022/07/08 00:44:22;;;;;;;7.38;1.25;;;20.40;60.70;;;;;;5077359;28;20077;-60
2022/07/08 00:46:48;;;;;;;7.10;1.35;;;20.50;60.60;;;;;;5085113;28;20082;-59
2022/07/08 00:49:13;;;;;;;3.22;1.33;;;20.40;60.30;;;;;;5038201;28;20025;-58
2022/07/08 00:51:39;;;;;;;4.32;1.27;;;20.50;60.30;;;;;;5064724;28;20052;-59
2022/07/08 00:54:05;;;;;;;3.25;1.10;;;20.50;60.00;;;;;;5055620;28;20028;-57
2022/07/08 00:56:30;;;;;;;4.93;1.10;;;20.40;60.20;;;;;;5066958;28;20109;-59
2022/07/08 00:58:56;;;;;;;4.55;1.20;;;20.50;60.20;;;;;;5058322;28;20025;-57
2022/07/08 01:01:21;;;;;;;3.63;1.20;;;20.50;60.00;;;;;;5045975;28;20044;-57
2022/07/08 01:03:47;;;;;;;5.57;1.48;;;20.40;60.30;;;;;;5069440;28;20108;-58
2022/07/08 01:06:12;;;;;;;4.28;1.55;;;20.40;60.20;;;;;;5039230;28;20097;-57
2022/07/08 01:08:39;;;;;;;2.95;1.25;;;20.40;60.30;;;;;;5045147;28;20027;-56
2022/07/08 01:11:05;;;;;;;2.97;1.10;;;20.50;60.00;;;;;;5029711;28;20025;-58
2022/07/08 01:13:30;;;;;;;4.15;1.50;;;20.40;60.20;;;;;;5046818;28;20033;-56
2022/07/08 01:15:56;;;;;;;3.92;1.40;;;20.40;60.30;;;;;;5063881;28;20020;-58
2022/07/08 01:18:23;;;;;;;4.28;1.30;;;20.00;60.70;;;;;;5052954;28;20025;-59
2022/07/08 01:20:49;;;;;;;3.20;1.48;;;20.10;61.40;;;;;;5025612;28;20029;-57
2022/07/08 01:23:14;;;;;;;4.30;1.15;;;20.20;60.50;;;;;;5043207;28;20032;-59
2022/07/08 01:25:40;;;;;;;3.70;1.02;;;20.20;60.80;;;;;;5061967;28;20414;-58
2022/07/08 01:28:05;;;;;;;2.88;1.48;;;20.30;60.50;;;;;;5065536;28;20028;-57
2022/07/08 01:30:31;;;;;;;5.10;1.50;;;20.40;61.00;;;;;;5049286;28;20033;-57
2022/07/08 01:32:56;;;;;;;3.38;1.15;;;20.40;59.90;;;;;;5063394;28;20066;-57
2022/07/08 01:35:22;;;;;;;5.30;1.52;;;20.40;60.30;;;;;;5077945;28;20585;-58
2022/07/08 01:37:47;;;;;;;3.67;1.38;;;20.40;60.10;;;;;;5083461;28;20024;-60
2022/07/08 01:40:13;;;;;;;2.97;1.30;;;20.40;60.40;;;;;;5070475;28;20056;-58
2022/07/08 01:42:38;;;;;;;2.35;1.10;;;20.20;60.60;;;;;;5063452;28;20027;-56
2022/07/08 01:45:04;;;;;;;4.05;1.30;;;20.30;60.70;;;;;;5074334;28;20491;-56
2022/07/08 01:47:30;;;;;;;3.75;1.42;;;20.40;60.50;;;;;;5039187;28;20039;-58
2022/07/08 01:49:55;;;;;;;4.18;1.23;;;20.30;60.30;;;;;;5056606;28;20025;-55
2022/07/08 01:52:21;;;;;;;4.00;1.10;;;20.30;60.70;;;;;;5062858;28;20094;-58
2022/07/08 01:54:46;;;;;;;2.05;1.10;;;20.30;60.50;;;;;;5069841;28;20491;-57
2022/07/08 01:57:15;;;;;;;4.07;1.30;;;20.30;60.50;;;;;;5065146;28;20051;-59
2022/07/08 01:59:47;;;;;;;4.90;1.38;;;20.30;59.90;;;;;;5077936;28;20088;-56
2022/07/08 02:02:13;;;;;;;4.63;1.33;;;20.20;60.50;;;;;;5063084;28;20136;-60
2022/07/08 02:04:39;;;;;;;5.80;1.50;;;20.20;61.10;;;;;;5067410;28;20028;-59
2022/07/08 02:07:05;;;;;;;2.85;1.15;;;20.20;60.60;;;;;;5082940;28;20032;-58
2022/07/08 02:09:31;;;;;;;3.95;1.40;;;20.30;60.30;;;;;;5046151;28;20058;-59
2022/07/08 02:14:41;;;;;;;2.83;1.20;;;20.30;60.30;;;;;;5051535;28;20035;-58
2022/07/08 02:17:06;;;;;;;2.85;1.20;;;20.40;60.10;;;;;;5085200;28;20032;-58
2022/07/08 02:19:33;;;;;;;2.78;1.27;;;20.40;60.10;;;;;;5050458;28;20089;-59
2022/07/08 02:21:59;;;;;;;3.75;1.33;;;20.30;60.30;;;;;;5048567;28;20040;-56
2022/07/08 02:24:24;;;;;;;4.10;1.48;;;20.30;60.30;;;;;;5048211;28;20656;-56
2022/07/08 02:26:50;;;;;;;3.55;1.02;;;20.30;59.70;;;;;;5086105;28;20028;-56
2022/07/08 02:29:15;;;;;;;3.70;1.00;;;20.30;60.20;;;;;;5085853;28;20306;-59
2022/07/08 02:31:41;;;;;;;5.38;1.05;;;20.40;60.00;;;;;;5069166;28;20483;-57
2022/07/08 02:34:06;;;;;;;2.35;1.08;;;20.20;60.80;;;;;;5065642;28;20104;-56
2022/07/08 02:36:32;;;;;;;7.95;1.25;;;20.20;60.40;;;;;;5064530;28;20024;-59
2022/07/08 02:38:57;;;;;;;4.05;1.50;;;20.20;60.40;;;;;;5085687;28;20077;-57
2022/07/08 02:41:22;;;;;;;2.47;1.27;;;20.30;60.40;;;;;;5054391;28;20036;-55
2022/07/08 02:43:48;;;;;;;4.35;1.35;;;20.00;60.60;;;;;;5066259;28;20028;-58
2022/07/08 02:46:13;;;;;;;4.57;1.52;;;20.10;60.90;;;;;;5078007;28;20032;-57
2022/07/08 02:48:39;;;;;;;7.55;1.67;;;20.00;61.30;;;;;;5067865;28;20070;-58
2022/07/08 02:51:05;;;;;;;3.13;0.80;;;20.10;60.80;;;;;;5076516;28;20033;-62
2022/07/08 02:53:30;;;;;;;3.03;1.20;;;20.10;60.60;;;;;;5048976;28;20025;-59
2022/07/08 02:55:56;;;;;;;3.22;1.23;;;20.20;60.40;;;;;;5074193;28;20027;-58
2022/07/08 02:58:21;;;;;;;2.88;1.25;;;20.10;60.80;;;;;;5086404;28;20070;-58
2022/07/08 03:00:47;;;;;;;4.25;1.40;;;20.20;60.50;;;;;;5079851;28;20483;-57
2022/07/08 03:03:12;;;;;;;5.38;1.20;;;20.20;60.50;;;;;;5065116;28;20668;-59
2022/07/08 03:05:38;;;;;;;4.65;1.20;;;20.20;60.40;;;;;;5052119;28;20028;-57
2022/07/08 03:08:04;;;;;;;4.30;1.27;;;20.30;60.40;;;;;;5068903;28;20515;-58
2022/07/08 03:10:29;;;;;;;4.82;1.10;;;20.30;60.00;;;;;;5083580;28;20583;-60
2022/07/08 03:12:55;;;;;;;4.97;1.20;;;20.40;60.10;;;;;;5065881;28;20033;-59
2022/07/08 03:15:20;;;;;;;4.85;1.58;;;20.40;60.10;;;;;;5066167;28;20135;-58
2022/07/08 03:17:46;;;;;;;3.70;1.40;;;20.30;60.10;;;;;;5085841;28;20036;-58
2022/07/08 03:20:11;;;;;;;1.50;0.77;;;20.30;60.00;;;;;;5067597;28;20032;-58
2022/07/08 03:22:37;;;;;;;2.60;1.05;;;20.30;59.90;;;;;;5067842;28;20146;-58
2022/07/08 03:25:02;;;;;;;6.22;1.42;;;20.30;60.20;;;;;;5066956;28;20376;-59
2022/07/08 03:27:28;;;;;;;5.00;0.93;;;20.30;60.10;;;;;;5063527;28;20537;-56
2022/07/08 03:29:53;;;;;;;3.15;1.00;;;20.40;60.00;;;;;;5050646;28;20086;-57
2022/07/08 03:32:19;;;;;;;2.65;1.00;;;20.40;60.00;;;;;;5070349;28;20561;-57
2022/07/08 03:34:44;;;;;;;3.33;1.27;;;20.40;59.90;;;;;;5066086;28;20086;-57
2022/07/08 03:37:10;;;;;;;4.55;1.52;;;20.40;59.90;;;;;;5048031;28;20029;-58
2022/07/08 03:39:35;;;;;;;3.67;1.00;;;20.30;59.90;;;;;;5047588;28;20077;-57
2022/07/08 03:42:01;;;;;;;6.68;1.35;;;20.40;60.10;;;;;;5076193;28;20028;-58
2022/07/08 03:44:27;;;;;;;2.58;1.15;;;20.30;59.80;;;;;;5085367;28;20590;-59
2022/07/08 03:46:52;;;;;;;4.20;1.15;;;20.40;59.80;;;;;;5076939;28;20035;-57
2022/07/08 03:49:18;;;;;;;5.07;1.58;;;20.30;60.40;;;;;;5064811;28;20028;-56
2022/07/08 03:51:43;;;;;;;4.15;1.10;;;20.30;60.20;;;;;;5072152;28;20032;-57
2022/07/08 03:54:09;;;;;;;8.10;1.50;;;20.30;60.30;;;;;;5085125;28;20031;-59
2022/07/08 03:56:35;;;;;;;7.25;1.60;;;20.30;60.30;;;;;;5081498;28;20020;-56
2022/07/08 03:59:00;;;;;;;5.88;1.50;;;20.30;60.50;;;;;;5064843;28;20073;-58
2022/07/08 04:01:26;;;;;;;7.47;1.73;;;20.40;59.70;;;;;;5068284;28;20040;-59
2022/07/08 04:03:51;;;;;;;17.05;2.15;;;20.30;61.20;;;;;;5085990;28;20035;-59
2022/07/08 04:06:17;;;;;;;9.38;2.20;;;20.30;62.20;;;;;;5065162;28;20029;-56
2022/07/08 04:08:43;;;;;;;11.40;2.25;;;20.30;62.30;;;;;;5063528;28;20564;-58
2022/07/08 04:11:08;;;;;;;8.70;2.03;;;20.20;61.80;;;;;;5046950;28;20567;-56
2022/07/08 04:13:33;;;;;;;15.32;3.17;;;20.20;61.40;;;;;;5065664;28;20739;-58
2022/07/08 04:16:00;;;;;;;15.60;2.55;;;20.30;61.60;;;;;;5046594;28;20155;-57
2022/07/08 04:18:25;;;;;;;9.82;2.20;;;20.30;61.50;;;;;;5063596;28;20085;-56
2022/07/08 04:20:51;;;;;;;12.73;3.00;;;20.30;61.00;;;;;;5066573;28;20025;-58
2022/07/08 04:23:16;;;;;;;14.25;2.20;;;20.30;61.00;;;;;;5069005;28;20052;-59
2022/07/08 04:25:42;;;;;;;7.38;1.90;;;20.20;60.80;;;;;;5064469;28;20470;-55
2022/07/08 04:28:07;;;;;;;8.73;2.15;;;20.20;61.40;;;;;;5060069;28;20084;-56
2022/07/08 04:30:33;;;;;;;7.18;2.20;;;20.10;60.90;;;;;;5066498;28;20036;-58
2022/07/08 04:32:58;;;;;;;8.65;2.65;;;20.20;61.10;;;;;;5054856;28;20031;-58
2022/07/08 04:35:24;;;;;;;5.35;1.30;;;20.20;60.80;;;;;;5064591;28;20025;-57
2022/07/08 04:37:50;;;;;;;7.22;1.75;;;20.20;61.00;;;;;;5073724;28;20089;-56
2022/07/08 04:40:15;;;;;;;7.95;1.70;;;20.30;60.80;;;;;;5083999;28;20044;-58
2022/07/08 04:42:41;;;;;;;7.38;2.00;;;20.30;60.70;;;;;;5074338;28;20020;-57
2022/07/08 04:45:07;;;;;;;6.35;1.90;;;20.30;60.70;;;;;;5050536;28;20033;-59
2022/07/08 04:47:33;;;;;;;7.07;1.40;;;20.30;60.60;;;;;;5033760;28;20032;-57
2022/07/08 04:49:58;;;;;;;12.63;2.42;;;20.20;61.10;;;;;;5081090;28;20090;-58
2022/07/08 04:52:24;;;;;;;9.65;1.77;;;20.30;61.30;;;;;;5075626;28;20036;-58
2022/07/08 04:54:49;;;;;;;7.38;1.75;;;20.20;61.20;;;;;;5057462;22;20426;-57
2022/07/08 04:57:15;;;;;;;11.38;2.00;;;20.20;61.10;;;;;;5019485;28;20747;-53
2022/07/08 04:59:41;;;;;;;10.85;1.98;;;20.30;61.00;;;;;;5037182;28;20032;-54
2022/07/08 05:02:07;;;;;;;13.07;2.65;;;20.40;60.90;;;;;;5038723;28;20043;-54
2022/07/08 05:04:32;;;;;;;13.75;2.22;;;20.40;60.00;;;;;;5036868;28;20029;-60
2022/07/08 05:06:58;;;;;;;15.50;2.58;;;20.30;60.60;;;;;;5001042;28;20151;-59
2022/07/08 05:09:23;;;;;;;10.52;2.53;;;20.20;59.90;;;;;;5036697;28;20087;-58
2022/07/08 05:11:49;;;;;;;8.02;2.22;;;20.20;61.00;;;;;;5038202;28;20036;-53
2022/07/08 05:14:15;;;;;;;9.20;1.73;;;20.20;60.70;;;;;;5038484;28;20063;-58
2022/07/08 05:16:40;;;;;;;9.43;1.77;;;20.20;60.60;;;;;;5038761;28;20029;-56
2022/07/08 05:19:07;;;;;;;9.70;2.10;;;20.20;60.80;;;;;;5038041;28;20531;-58
2022/07/08 05:21:36;;;;;;;8.73;2.55;;;20.30;60.70;;;;;;5038607;28;20167;-55
2022/07/08 05:24:03;;;;;;;14.88;2.55;;;20.40;61.60;;;;;;5038922;28;20083;-58
2022/07/08 05:26:28;;;;;;;10.98;2.50;;;20.40;60.70;;;;;;5039314;28;20036;-54
2022/07/08 05:28:54;;;;;;;12.10;2.00;;;20.10;62.00;;;;;;5029254;28;20039;-54
2022/07/08 05:31:19;;;;;;;15.80;3.35;;;20.20;61.90;;;;;;5059184;28;20025;-58
2022/07/08 05:33:45;;;;;;;17.85;3.05;;;20.20;62.00;;;;;;5059812;28;20044;-56
2022/07/08 05:36:10;;;;;;;16.48;2.67;;;20.20;61.50;;;;;;5059693;28;20037;-54
2022/07/08 05:38:36;;;;;;;13.00;3.15;;;20.10;62.00;;;;;;5059650;28;20024;-55
2022/07/08 05:41:01;;;;;;;11.90;2.25;;;20.10;61.30;;;;;;5041896;28;20070;-60
2022/07/08 05:43:27;;;;;;;15.05;2.25;;;20.10;61.90;;;;;;5059975;28;20048;-56
2022/07/08 05:45:52;;;;;;;14.98;3.10;;;20.20;61.40;;;;;;5042002;28;20116;-52
2022/07/08 05:48:18;;;;;;;23.05;3.55;;;20.20;61.10;;;;;;5059304;28;20079;-54
2022/07/08 05:50:43;;;;;;;11.43;2.80;;;20.20;61.40;;;;;;5040303;28;20029;-58
2022/07/08 05:53:09;;;;;;;13.30;3.05;;;20.20;61.70;;;;;;5058088;28;20235;-49
2022/07/08 05:55:34;;;;;;;11.57;2.92;;;20.20;61.60;;;;;;5039690;28;20028;-54
2022/07/08 05:58:00;;;;;;;13.35;3.05;;;19.90;62.30;;;;;;5039659;28;20029;-59
2022/07/08 06:00:25;;;;;;;16.00;3.10;;;20.00;62.00;;;;;;5039545;28;20566;-53
2022/07/08 06:02:51;;;;;;;14.82;4.15;;;20.10;61.80;;;;;;5041039;28;20029;-55
2022/07/08 06:05:17;;;;;;;14.30;3.40;;;20.10;61.60;;;;;;5039874;28;20025;-52
2022/07/08 06:07:42;;;;;;;19.13;3.53;;;20.00;61.70;;;;;;5040077;28;20140;-59
2022/07/08 06:10:08;;;;;;;15.38;3.67;;;20.10;62.00;;;;;;5056480;28;20061;-56
2022/07/08 06:12:33;;;;;;;18.48;3.78;;;20.10;61.60;;;;;;5060491;28;20033;-58
2022/07/08 06:14:59;;;;;;;13.68;2.95;;;20.20;61.40;;;;;;5060269;28;20440;-53
2022/07/08 06:17:24;;;;;;;18.17;3.58;;;20.10;61.70;;;;;;5059679;28;20043;-56
2022/07/08 06:19:50;;;;;;;23.77;3.38;;;20.10;61.60;;;;;;5058670;28;20028;-55
2022/07/08 06:22:15;;;;;;;16.67;3.45;;;20.00;61.90;;;;;;5059346;28;20737;-52
2022/07/08 06:24:41;;;;;;;15.23;3.85;;;20.00;62.20;;;;;;5059385;28;20028;-58
2022/07/08 06:27:06;;;;;;;10.05;2.70;;;19.90;61.90;;;;;;5048677;28;20028;-55
2022/07/08 06:29:32;;;;;;;13.43;3.30;;;20.10;62.00;;;;;;5058297;28;20055;-53
2022/07/08 06:31:58;;;;;;;16.17;3.28;;;19.80;61.70;;;;;;5059037;28;20107;-54
2022/07/08 06:34:23;;;;;;;19.27;3.60;;;19.60;63.00;;;;;;5058916;28;20089;-58
2022/07/08 06:36:49;;;;;;;12.80;3.53;;;19.60;62.90;;;;;;5058928;28;20033;-52
2022/07/08 06:39:14;;;;;;;22.77;4.55;;;19.80;62.60;;;;;;5058359;28;20052;-53
2022/07/08 06:41:40;;;;;;;17.60;5.95;;;19.90;62.10;;;;;;5058985;28;20035;-56
2022/07/08 06:44:05;;;;;;;15.75;4.90;;;19.90;62.30;;;;;;5059721;28;20025;-57
2022/07/08 06:46:32;;;;;;;7.55;4.53;;;19.80;62.90;;;;;;5059621;28;20039;-57
2022/07/08 06:48:57;;;;;;;7.60;4.90;;;19.60;62.50;;;;;;5058606;28;20441;-58
2022/07/08 06:51:23;;;;;;;13.55;5.53;;;19.60;62.40;;;;;;5041007;28;20040;-53
2022/07/08 06:56:32;;;;;;;11.07;4.43;;;19.60;63.20;;;;;;5043670;28;20112;-55
2022/07/08 06:58:58;;;;;;;5.38;3.63;;;19.70;62.60;;;;;;5057495;28;20095;-54
2022/07/08 07:01:23;;;;;;;9.10;4.28;;;19.80;62.20;;;;;;5058670;28;20033;-55
2022/07/08 07:03:49;;;;;;;8.45;4.55;;;19.80;61.90;;;;;;5061487;28;20025;-57
2022/07/08 07:06:14;;;;;;;10.13;4.53;;;19.80;62.20;;;;;;5062418;28;20035;-60
2022/07/08 07:08:41;;;;;;;6.80;3.85;;;19.90;61.80;;;;;;5062197;28;20822;-58
2022/07/08 07:11:06;;;;;;;9.40;4.82;;;19.80;62.10;;;;;;5062845;28;20111;-59
2022/07/08 07:13:32;;;;;;;7.80;4.15;;;19.90;61.90;;;;;;5062386;28;20067;-54
2022/07/08 07:15:57;;;;;;;7.68;4.13;;;19.90;62.40;;;;;;5061532;28;20579;-56
2022/07/08 07:18:25;;;;;;;10.50;3.92;;;19.90;61.80;;;;;;5061816;28;20036;-56
2022/07/08 07:20:50;;;;;;;12.32;4.93;;;20.00;61.70;;;;;;5061076;28;20016;-57
2022/07/08 07:23:16;;;;;;;9.65;5.13;;;19.90;63.30;;;;;;5044140;28;20423;-56
2022/07/08 07:25:41;;;;;;;17.73;5.45;;;19.90;63.40;;;;;;5061569;28;20028;-56
2022/07/08 07:28:07;;;;;;;16.05;6.38;;;19.90;62.90;;;;;;5062210;28;20078;-53
2022/07/08 07:30:32;;;;;;;14.70;5.18;;;19.60;62.50;;;;;;5060898;28;20029;-55
2022/07/08 07:32:58;;;;;;;9.43;5.72;;;19.50;63.90;;;;;;5061557;28;20029;-56
2022/07/08 07:35:23;;;;;;;18.40;7.03;;;19.70;63.20;;;;;;5061680;28;20029;-55
2022/07/08 07:37:49;;;;;;;15.40;6.88;;;19.80;62.80;;;;;;5061919;28;20028;-55
2022/07/08 07:40:14;;;;;;;20.17;6.10;;;19.80;62.70;;;;;;5043063;28;20025;-56
2022/07/08 07:42:40;;;;;;;21.30;6.47;;;19.90;63.00;;;;;;5062139;28;20067;-51
2022/07/08 07:45:06;;;;;;;18.63;7.25;;;19.90;63.30;;;;;;5061950;28;20028;-57
2022/07/08 07:47:32;;;;;;;16.02;7.60;;;19.80;62.80;;;;;;5061702;28;20089;-58
2022/07/08 07:49:57;;;;;;;22.20;7.65;;;19.40;63.20;;;;;;5041808;28;20028;-56
2022/07/08 07:52:23;;;;;;;20.50;6.90;;;19.50;63.90;;;;;;5060279;28;20441;-56
2022/07/08 07:54:48;;;;;;;18.85;5.95;;;19.60;63.40;;;;;;5060065;28;20644;-56
2022/07/08 07:57:14;;;;;;;16.30;6.55;;;19.70;63.10;;;;;;5059548;28;20033;-55
2022/07/08 07:59:40;;;;;;;17.30;6.82;;;19.60;63.10;;;;;;5060484;28;20016;-55
2022/07/08 08:02:06;;;;;;;16.48;8.30;;;19.60;62.90;;;;;;5060438;28;20055;-56
2022/07/08 08:04:31;;;;;;;16.88;7.05;;;19.60;62.10;;;;;;5043597;28;20033;-56
2022/07/08 08:06:57;;;;;;;16.33;7.00;;;19.40;63.70;;;;;;5042929;28;20025;-55
2022/07/08 08:09:22;;;;;;;17.15;7.53;;;19.50;63.10;;;;;;5042247;28;20035;-58
2022/07/08 08:11:48;;;;;;;15.38;6.75;;;19.60;62.80;;;;;;5047613;28;20037;-59
2022/07/08 08:14:13;;;;;;;14.10;7.90;;;19.70;62.60;;;;;;5040486;28;20047;-57
2022/07/08 08:16:39;;;;;;;13.15;7.07;;;19.60;62.60;;;;;;5023121;28;20035;-59
2022/07/08 08:19:04;;;;;;;14.05;6.45;;;19.60;62.50;;;;;;5040748;28;20245;-56
2022/07/08 08:21:30;;;;;;;12.82;6.13;;;19.80;62.30;;;;;;5040119;28;20416;-58
2022/07/08 08:23:56;;;;;;;16.17;6.80;;;19.90;62.00;;;;;;5040044;28;20463;-56
2022/07/08 08:26:22;;;;;;;17.70;7.03;;;19.90;61.50;;;;;;5039784;28;20025;-55
2022/07/08 08:28:48;;;;;;;19.23;6.50;;;19.90;61.50;;;;;;5039285;28;20024;-57
2022/07/08 08:31:14;;;;;;;13.18;6.10;;;19.90;61.70;;;;;;5039045;28;20025;-54
2022/07/08 08:33:39;;;;;;;11.70;6.25;;;19.90;61.70;;;;;;5040722;28;20075;-52
2022/07/08 08:36:05;;;;;;;11.15;6.45;;;19.70;62.20;;;;;;5038759;28;20044;-57
2022/07/08 08:38:31;;;;;;;11.10;5.80;;;19.80;62.10;;;;;;5039246;28;20578;-57
2022/07/08 08:40:58;;;;;;;11.82;5.40;;;19.80;61.90;;;;;;5039045;28;20028;-56
2022/07/08 08:43:25;;;;;;;12.23;6.38;;;19.80;61.60;;;;;;5039383;28;20051;-56
2022/07/08 08:45:54;;;;;;;13.68;5.22;;;19.80;61.70;;;;;;5021454;28;20399;-58
2022/07/08 08:48:24;;;;;;;8.30;5.30;;;19.70;61.40;;;;;;5058731;28;20044;-58
2022/07/08 08:50:53;;;;;;;9.20;5.15;;;19.70;62.60;;;;;;5058419;28;20079;-56
2022/07/08 08:53:20;;;;;;;12.38;5.55;;;19.80;61.80;;;;;;5058612;28;20657;-55
2022/07/08 08:55:45;;;;;;;7.72;4.85;;;19.90;61.60;;;;;;5040193;28;20047;-58
2022/07/08 08:58:11;;;;;;;10.55;5.13;;;20.00;61.40;;;;;;5040203;28;20036;-54
2022/07/08 09:00:37;;;;;;;11.02;5.85;;;20.00;61.10;;;;;;5024554;28;20025;-58
2022/07/08 09:03:02;;;;;;;8.30;4.93;;;20.00;61.20;;;;;;5059128;28;20626;-58
2022/07/08 09:05:28;;;;;;;8.50;4.50;;;20.00;61.20;;;;;;5059541;28;20047;-57
2022/07/08 09:07:54;;;;;;;10.02;4.85;;;20.00;61.20;;;;;;5040641;28;20032;-53
2022/07/08 09:10:20;;;;;;;8.82;4.93;;;19.90;60.90;;;;;;5058106;28;20116;-57
2022/07/08 09:13:04;;;;;;;9.75;4.45;;;19.90;61.70;;;;;;5058437;28;20741;-55
2022/07/08 09:15:31;;;;;;;11.10;4.60;;;19.80;61.30;;;;;;5058734;28;20036;-56
2022/07/08 09:17:59;;;;;;;10.35;5.15;;;19.60;62.50;;;;;;5058061;28;20032;-55
2022/07/08 09:20:24;;;;;;;10.30;4.38;;;19.50;63.30;;;;;;5057708;28;20098;-55
2022/07/08 09:22:50;;;;;;;6.93;4.25;;;19.60;62.80;;;;;;5058321;28;20074;-53
2022/07/08 09:25:15;;;;;;;7.63;4.65;;;19.70;62.50;;;;;;5058052;28;20031;-60
2022/07/08 09:27:41;;;;;;;8.25;4.80;;;19.80;61.90;;;;;;5058050;28;20016;-60
2022/07/08 09:30:07;;;;;;;8.52;4.35;;;19.90;61.90;;;;;;5058327;28;20017;-59
2022/07/08 09:32:32;;;;;;;8.05;4.18;;;19.90;61.70;;;;;;5057291;28;20040;-57
2022/07/08 09:34:58;;;;;;;6.38;3.63;;;19.80;62.10;;;;;;5056657;28;20029;-55
2022/07/08 09:37:23;;;;;;;6.22;3.78;;;19.80;61.90;;;;;;5039129;28;20032;-56
2022/07/08 09:39:49;;;;;;;12.30;3.70;;;19.60;62.10;;;;;;5056609;28;20545;-55
2022/07/08 09:42:15;;;;;;;8.65;3.90;;;19.30;62.80;;;;;;5056960;28;20116;-56
2022/07/08 09:44:40;;;;;;;9.10;4.03;;;19.50;62.90;;;;;;5039504;28;20317;-57
2022/07/08 09:47:15;;;;;;;7.85;4.50;;;19.50;62.80;;;;;;5057502;28;20037;-55
2022/07/08 09:49:42;;;;;;;5.87;3.87;;;19.60;62.60;;;;;;5013240;28;20719;-58
2022/07/08 09:52:11;;;;;;;7.45;3.85;;;19.70;62.20;;;;;;5058207;28;20104;-54
2022/07/08 09:54:37;;;;;;;9.57;3.78;;;19.70;62.10;;;;;;5058219;28;20312;-53
2022/07/08 09:57:09;;;;;;;6.72;3.33;;;19.80;61.60;;;;;;5057669;28;20856;-52
2022/07/08 09:59:35;;;;;;;13.82;4.95;;;19.80;61.70;;;;;;5057622;28;20033;-49
2022/07/08 10:02:00;;;;;;;11.32;4.47;;;19.80;60.70;;;;;;5040042;28;20120;-54
2022/07/08 10:04:26;;;;;;;9.65;4.05;;;19.60;60.80;;;;;;5039968;28;20120;-51
2022/07/08 10:06:53;;;;;;;12.32;4.40;;;19.30;63.00;;;;;;5039765;28;20034;-53
2022/07/08 10:09:18;;;;;;;10.63;4.68;;;19.40;62.20;;;;;;5056695;28;20037;-52
2022/07/08 10:11:44;;;;;;;11.20;4.45;;;19.40;62.30;;;;;;5040406;28;20028;-52
2022/07/08 10:14:10;;;;;;;7.60;4.75;;;19.50;62.50;;;;;;5040391;28;20406;-52
2022/07/08 10:16:35;;;;;;;6.68;4.20;;;19.60;61.40;;;;;;5040473;28;20111;-54
2022/07/08 10:19:01;;;;;;;9.45;4.47;;;19.40;62.50;;;;;;5023493;28;20060;-52
2022/07/08 10:21:27;;;;;;;9.90;3.67;;;19.40;62.70;;;;;;5040184;28;20508;-50
2022/07/08 10:23:53;;;;;;;8.98;3.70;;;19.50;62.50;;;;;;5039691;28;20082;-50
2022/07/08 10:26:20;;;;;;;8.50;4.47;;;19.60;62.30;;;;;;5039759;28;20110;-50
2022/07/08 10:28:53;;;;;;;7.43;4.10;;;19.50;61.20;;;;;;5039243;28;20036;-48
2022/07/08 10:31:23;;;;;;;8.43;4.35;;;19.50;62.10;;;;;;5023988;28;20040;-53
2022/07/08 10:33:49;;;;;;;9.40;3.97;;;19.50;63.10;;;;;;5039491;28;20052;-51
2022/07/08 10:36:21;;;;;;;8.02;3.70;;;19.60;62.90;;;;;;5057771;28;20048;-54
2022/07/08 10:38:46;;;;;;;6.72;3.72;;;19.70;62.30;;;;;;5060574;28;20290;-57
2022/07/08 10:41:13;;;;;;;10.40;4.00;;;19.70;62.20;;;;;;5061854;28;20040;-55
2022/07/08 10:43:49;;;;;;;10.40;4.18;;;19.70;61.30;;;;;;5037018;28;20778;-55
2022/07/08 10:46:16;;;;;;;7.75;3.95;;;19.50;61.90;;;;;;5041601;28;20511;-58
2022/07/08 10:48:43;;;;;;;6.95;3.25;;;19.50;62.40;;;;;;5023529;28;20059;-60
2022/07/08 10:51:17;;;;;;;9.65;3.63;;;19.50;62.40;;;;;;5042844;28;20041;-56
2022/07/08 10:53:52;;;;;;;10.17;3.37;;;19.60;61.90;;;;;;5041695;28;20103;-58
2022/07/08 10:56:49;;;;;;;5.30;2.80;;;19.60;62.20;;;;;;5024311;28;20816;-57
2022/07/08 10:59:20;;;;;;;4.60;3.00;;;19.70;61.80;;;;;;5040140;28;20124;-55
2022/07/08 11:01:52;;;;;;;6.20;3.10;;;19.80;61.80;;;;;;5041425;28;20032;-55
2022/07/08 11:04:34;;;;;;;3.63;2.80;;;19.80;61.70;;;;;;5041116;28;20048;-54
2022/07/08 11:07:22;;;;;;;9.30;3.40;;;19.90;61.30;;;;;;5040764;28;20511;-53
2022/07/08 11:09:52;;;;;;;7.85;3.30;;;19.90;61.20;;;;;;5039799;28;20445;-56
2022/07/08 11:12:39;;;;;;;10.20;3.63;;;19.80;61.10;;;;;;5041270;28;20040;-56
2022/07/08 11:15:11;;;;;;;6.35;3.05;;;19.80;61.50;;;;;;5040302;28;20064;-55
2022/07/08 11:17:37;;;;;;;6.97;3.17;;;19.80;61.30;;;;;;5040709;28;20036;-56
2022/07/08 11:20:08;;;;;;;7.18;3.10;;;19.70;61.70;;;;;;5039626;28;20041;-56
2022/07/08 11:22:37;;;;;;;6.18;3.10;;;19.80;61.50;;;;;;5022905;28;20029;-58
2022/07/08 11:25:03;;;;;;;7.15;2.45;;;19.80;61.40;;;;;;5023233;28;20029;-54
2022/07/08 11:27:31;;;;;;;6.70;2.72;;;19.70;61.30;;;;;;5040360;28;20033;-57
2022/07/08 11:29:56;;;;;;;5.47;3.00;;;19.70;61.40;;;;;;5039936;28;20025;-59
2022/07/08 11:32:23;;;;;;;7.53;3.50;;;19.80;61.70;;;;;;5040539;28;20025;-53
2022/07/08 11:34:49;;;;;;;5.45;2.35;;;19.80;61.50;;;;;;5040036;28;20029;-55
2022/07/08 11:37:14;;;;;;;5.70;2.45;;;19.80;61.40;;;;;;5040235;28;20043;-58
2022/07/08 11:39:41;;;;;;;8.00;2.78;;;19.80;61.40;;;;;;5022006;28;20021;-57
2022/07/08 11:42:07;;;;;;;4.82;2.55;;;19.80;61.10;;;;;;5040476;28;20041;-55
2022/07/08 11:44:33;;;;;;;4.22;2.30;;;19.70;61.50;;;;;;5040171;28;20510;-55
2022/07/08 11:46:58;;;;;;;5.10;2.92;;;19.70;61.50;;;;;;5021856;28;20041;-57
2022/07/08 11:49:24;;;;;;;6.25;2.60;;;19.80;61.30;;;;;;5038093;28;20036;-55
2022/07/08 11:51:54;;;;;;;7.10;2.67;;;19.70;61.60;;;;;;5040510;28;20025;-55
2022/07/08 11:54:21;;;;;;;7.78;3.67;;;19.40;62.40;;;;;;5040262;28;20037;-53
2022/07/08 11:56:47;;;;;;;5.70;2.50;;;19.20;62.90;;;;;;5039807;28;20120;-58
2022/07/08 11:59:22;;;;;;;4.78;2.20;;;19.40;62.50;;;;;;5039366;28;20120;-57
2022/07/08 12:01:51;;;;;;;4.60;2.35;;;19.60;62.00;;;;;;5006446;28;20425;-56
2022/07/08 12:04:17;;;;;;;5.80;2.30;;;19.50;62.20;;;;;;5022185;28;20213;-51
2022/07/08 12:06:52;;;;;;;5.22;2.25;;;19.60;61.80;;;;;;5039480;28;20166;-52
2022/07/08 12:09:19;;;;;;;5.85;2.25;;;19.70;61.80;;;;;;5039176;28;20025;-55
2022/07/08 12:11:45;;;;;;;6.80;2.20;;;19.80;61.40;;;;;;5022576;28;20104;-54
2022/07/08 12:14:11;;;;;;;3.85;2.25;;;19.70;62.00;;;;;;5040307;28;20227;-58
2022/07/08 12:16:47;;;;;;;6.65;2.03;;;19.70;61.80;;;;;;5039666;28;20108;-55
2022/07/08 12:19:28;;;;;;;3.92;2.42;;;19.80;61.50;;;;;;5005537;28;20041;-57
2022/07/08 12:21:54;;;;;;;5.55;2.22;;;19.80;61.60;;;;;;5039671;28;20029;-51
2022/07/08 12:24:33;;;;;;;4.72;2.30;;;19.80;61.30;;;;;;5039809;28;20163;-52
2022/07/08 12:27:01;;;;;;;7.40;2.55;;;19.80;61.50;;;;;;5039108;28;20068;-53
2022/07/08 12:29:27;;;;;;;5.65;2.05;;;19.70;62.10;;;;;;5020977;28;20033;-52
2022/07/08 12:31:53;;;;;;;7.32;2.20;;;19.80;61.40;;;;;;5021555;28;20545;-52
2022/07/08 12:34:20;;;;;;;5.82;2.20;;;19.70;61.40;;;;;;5038599;28;20037;-51
2022/07/08 12:36:46;;;;;;;5.43;1.65;;;19.70;60.30;;;;;;5039042;28;20056;-50
2022/07/08 12:39:16;;;;;;;4.90;1.70;;;19.70;61.60;;;;;;5038850;28;20048;-51
2022/07/08 12:41:45;;;;;;;5.10;2.22;;;19.80;61.60;;;;;;5004344;28;20035;-53
2022/07/08 12:44:29;;;;;;;6.40;2.30;;;19.80;61.40;;;;;;5021364;28;20030;-51